sensor_id;sensor_type;location;lat;lon;timestamp;P1;durP1;ratioP1;P2;durP2;ratioP2
52848;SDS011;38714;53.180;5.812;2023-02-04T00:00:46;30.30;;;6.93;;
52848;SDS011;38714;53.180;5.812;2023-02-04T00:03:12;15.70;;;6.80;;
52848;SDS011;38714;53.180;5.812;2023-02-04T00:05:42;20.65;;;6.30;;
52848;SDS011;38714;53.180;5.812;2023-02-04T00:08:08;29.65;;;9.02;;
52848;SDS011;38714;53.180;5.812;2023-02-04T00:10:34;20.30;;;7.43;;
52848;SDS011;38714;53.180;5.812;2023-02-04T00:13:00;28.60;;;7.57;;
52848;SDS011;38714;53.180;5.812;2023-02-04T00:15:26;27.17;;;7.32;;
52848;SDS011;38714;53.180;5.812;2023-02-04T00:17:51;15.35;;;5.47;;
52848;SDS011;38714;53.180;5.812;2023-02-04T00:20:17;18.42;;;6.20;;
52848;SDS011;38714;53.180;5.812;2023-02-04T00:22:43;29.15;;;8.48;;
52848;SDS011;38714;53.180;5.812;2023-02-04T00:25:09;16.67;;;7.50;;
52848;SDS011;38714;53.180;5.812;2023-02-04T00:27:35;16.23;;;7.03;;
52848;SDS011;38714;53.180;5.812;2023-02-04T00:30:01;19.02;;;8.25;;
52848;SDS011;38714;53.180;5.812;2023-02-04T00:32:28;25.77;;;7.53;;
52848;SDS011;38714;53.180;5.812;2023-02-04T00:34:53;14.18;;;6.68;;
52848;SDS011;38714;53.180;5.812;2023-02-04T00:37:19;24.98;;;7.28;;
52848;SDS011;38714;53.180;5.812;2023-02-04T00:39:45;19.98;;;8.05;;
52848;SDS011;38714;53.180;5.812;2023-02-04T00:42:10;30.67;;;9.48;;
52848;SDS011;38714;53.180;5.812;2023-02-04T00:44:36;16.65;;;6.43;;
52848;SDS011;38714;53.180;5.812;2023-02-04T00:47:02;22.00;;;6.20;;
52848;SDS011;38714;53.180;5.812;2023-02-04T00:49:28;40.90;;;9.40;;
52848;SDS011;38714;53.180;5.812;2023-02-04T00:51:53;16.60;;;7.60;;
52848;SDS011;38714;53.180;5.812;2023-02-04T00:54:19;12.27;;;5.50;;
52848;SDS011;38714;53.180;5.812;2023-02-04T00:56:45;17.75;;;7.03;;
52848;SDS011;38714;53.180;5.812;2023-02-04T00:59:10;28.00;;;7.43;;
52848;SDS011;38714;53.180;5.812;2023-02-04T01:01:36;20.77;;;7.20;;
52848;SDS011;38714;53.180;5.812;2023-02-04T01:04:02;20.65;;;5.68;;
52848;SDS011;38714;53.180;5.812;2023-02-04T01:06:27;27.25;;;7.93;;
52848;SDS011;38714;53.180;5.812;2023-02-04T01:08:53;33.40;;;9.63;;
52848;SDS011;38714;53.180;5.812;2023-02-04T01:11:19;19.30;;;6.88;;
52848;SDS011;38714;53.180;5.812;2023-02-04T01:13:44;42.60;;;11.35;;
52848;SDS011;38714;53.180;5.812;2023-02-04T01:16:11;27.27;;;8.30;;
52848;SDS011;38714;53.180;5.812;2023-02-04T01:18:37;19.73;;;7.53;;
52848;SDS011;38714;53.180;5.812;2023-02-04T01:21:03;21.10;;;6.03;;
52848;SDS011;38714;53.180;5.812;2023-02-04T01:23:29;19.67;;;6.50;;
52848;SDS011;38714;53.180;5.812;2023-02-04T01:25:54;13.68;;;6.60;;
52848;SDS011;38714;53.180;5.812;2023-02-04T01:28:20;25.85;;;7.97;;
52848;SDS011;38714;53.180;5.812;2023-02-04T01:30:46;27.63;;;8.75;;
52848;SDS011;38714;53.180;5.812;2023-02-04T01:33:11;36.58;;;8.68;;
52848;SDS011;38714;53.180;5.812;2023-02-04T01:35:37;19.08;;;6.55;;
52848;SDS011;38714;53.180;5.812;2023-02-04T01:38:02;27.98;;;7.95;;
52848;SDS011;38714;53.180;5.812;2023-02-04T01:40:28;20.45;;;6.50;;
52848;SDS011;38714;53.180;5.812;2023-02-04T01:42:54;18.45;;;5.90;;
52848;SDS011;38714;53.180;5.812;2023-02-04T01:45:19;27.00;;;8.80;;
52848;SDS011;38714;53.180;5.812;2023-02-04T01:47:45;10.93;;;5.47;;
52848;SDS011;38714;53.180;5.812;2023-02-04T01:50:12;25.58;;;9.43;;
52848;SDS011;38714;53.180;5.812;2023-02-04T01:52:41;24.58;;;8.57;;
52848;SDS011;38714;53.180;5.812;2023-02-04T01:55:15;18.02;;;5.97;;
52848;SDS011;38714;53.180;5.812;2023-02-04T01:57:43;18.83;;;8.77;;
52848;SDS011;38714;53.180;5.812;2023-02-04T02:00:31;26.50;;;6.60;;
52848;SDS011;38714;53.180;5.812;2023-02-04T02:02:56;20.05;;;7.38;;
52848;SDS011;38714;53.180;5.812;2023-02-04T02:05:24;16.75;;;5.82;;
52848;SDS011;38714;53.180;5.812;2023-02-04T02:07:55;16.30;;;8.77;;
52848;SDS011;38714;53.180;5.812;2023-02-04T02:10:22;25.05;;;8.02;;
52848;SDS011;38714;53.180;5.812;2023-02-04T02:12:48;13.55;;;7.85;;
52848;SDS011;38714;53.180;5.812;2023-02-04T02:15:15;19.75;;;6.75;;
52848;SDS011;38714;53.180;5.812;2023-02-04T02:17:41;23.33;;;5.70;;
52848;SDS011;38714;53.180;5.812;2023-02-04T02:20:08;24.08;;;7.68;;
52848;SDS011;38714;53.180;5.812;2023-02-04T02:22:38;16.40;;;6.60;;
52848;SDS011;38714;53.180;5.812;2023-02-04T02:25:12;16.10;;;7.65;;
52848;SDS011;38714;53.180;5.812;2023-02-04T02:27:38;31.00;;;4.93;;
52848;SDS011;38714;53.180;5.812;2023-02-04T02:30:04;17.40;;;6.05;;
52848;SDS011;38714;53.180;5.812;2023-02-04T02:32:32;29.30;;;6.97;;
52848;SDS011;38714;53.180;5.812;2023-02-04T02:34:58;27.20;;;6.55;;
52848;SDS011;38714;53.180;5.812;2023-02-04T02:37:24;29.65;;;8.63;;
52848;SDS011;38714;53.180;5.812;2023-02-04T02:39:49;24.90;;;7.28;;
52848;SDS011;38714;53.180;5.812;2023-02-04T02:42:15;32.13;;;8.07;;
52848;SDS011;38714;53.180;5.812;2023-02-04T02:44:43;35.10;;;7.03;;
52848;SDS011;38714;53.180;5.812;2023-02-04T02:47:14;37.88;;;7.85;;
52848;SDS011;38714;53.180;5.812;2023-02-04T02:49:42;20.90;;;7.47;;
52848;SDS011;38714;53.180;5.812;2023-02-04T02:52:09;28.58;;;8.07;;
52848;SDS011;38714;53.180;5.812;2023-02-04T02:54:36;31.50;;;9.13;;
52848;SDS011;38714;53.180;5.812;2023-02-04T02:57:02;16.52;;;5.35;;
52848;SDS011;38714;53.180;5.812;2023-02-04T02:59:27;25.33;;;9.45;;
52848;SDS011;38714;53.180;5.812;2023-02-04T03:01:55;22.50;;;7.50;;
52848;SDS011;38714;53.180;5.812;2023-02-04T03:04:25;18.85;;;6.38;;
52848;SDS011;38714;53.180;5.812;2023-02-04T03:06:54;34.88;;;8.32;;
52848;SDS011;38714;53.180;5.812;2023-02-04T03:09:20;33.85;;;7.43;;
52848;SDS011;38714;53.180;5.812;2023-02-04T03:11:47;24.27;;;6.97;;
52848;SDS011;38714;53.180;5.812;2023-02-04T03:14:13;17.30;;;7.38;;
52848;SDS011;38714;53.180;5.812;2023-02-04T03:16:39;24.23;;;6.88;;
52848;SDS011;38714;53.180;5.812;2023-02-04T03:19:05;26.83;;;6.30;;
52848;SDS011;38714;53.180;5.812;2023-02-04T03:21:32;20.27;;;7.93;;
52848;SDS011;38714;53.180;5.812;2023-02-04T03:23:59;19.38;;;6.13;;
52848;SDS011;38714;53.180;5.812;2023-02-04T03:26:25;16.85;;;5.72;;
52848;SDS011;38714;53.180;5.812;2023-02-04T03:28:54;19.80;;;6.57;;
52848;SDS011;38714;53.180;5.812;2023-02-04T03:31:20;21.02;;;8.50;;
52848;SDS011;38714;53.180;5.812;2023-02-04T03:33:46;21.30;;;6.38;;
52848;SDS011;38714;53.180;5.812;2023-02-04T03:36:12;38.13;;;10.07;;
52848;SDS011;38714;53.180;5.812;2023-02-04T03:38:37;23.92;;;8.68;;
52848;SDS011;38714;53.180;5.812;2023-02-04T03:41:03;24.85;;;6.65;;
52848;SDS011;38714;53.180;5.812;2023-02-04T03:43:29;19.25;;;6.32;;
52848;SDS011;38714;53.180;5.812;2023-02-04T03:45:54;17.48;;;7.30;;
52848;SDS011;38714;53.180;5.812;2023-02-04T03:48:20;35.05;;;8.18;;
52848;SDS011;38714;53.180;5.812;2023-02-04T03:50:46;18.38;;;6.65;;
52848;SDS011;38714;53.180;5.812;2023-02-04T03:53:11;16.85;;;5.95;;
52848;SDS011;38714;53.180;5.812;2023-02-04T03:55:37;12.85;;;5.75;;
52848;SDS011;38714;53.180;5.812;2023-02-04T03:58:02;21.45;;;8.18;;
52848;SDS011;38714;53.180;5.812;2023-02-04T04:00:28;28.80;;;8.00;;
52848;SDS011;38714;53.180;5.812;2023-02-04T04:02:56;16.17;;;6.15;;
52848;SDS011;38714;53.180;5.812;2023-02-04T04:05:22;25.42;;;9.88;;
52848;SDS011;38714;53.180;5.812;2023-02-04T04:07:47;37.00;;;6.78;;
52848;SDS011;38714;53.180;5.812;2023-02-04T04:10:13;12.57;;;5.93;;
52848;SDS011;38714;53.180;5.812;2023-02-04T04:12:39;30.98;;;8.35;;
52848;SDS011;38714;53.180;5.812;2023-02-04T04:15:05;24.52;;;6.90;;
52848;SDS011;38714;53.180;5.812;2023-02-04T04:17:31;17.70;;;6.68;;
52848;SDS011;38714;53.180;5.812;2023-02-04T04:19:57;31.85;;;7.28;;
52848;SDS011;38714;53.180;5.812;2023-02-04T04:22:22;21.27;;;7.35;;
52848;SDS011;38714;53.180;5.812;2023-02-04T04:24:48;24.02;;;6.85;;
52848;SDS011;38714;53.180;5.812;2023-02-04T04:27:14;19.33;;;7.88;;
52848;SDS011;38714;53.180;5.812;2023-02-04T04:29:39;31.00;;;7.28;;
52848;SDS011;38714;53.180;5.812;2023-02-04T04:32:05;17.77;;;6.38;;
52848;SDS011;38714;53.180;5.812;2023-02-04T04:34:30;23.08;;;7.15;;
52848;SDS011;38714;53.180;5.812;2023-02-04T04:36:56;25.33;;;8.73;;
52848;SDS011;38714;53.180;5.812;2023-02-04T04:39:22;13.13;;;4.95;;
52848;SDS011;38714;53.180;5.812;2023-02-04T04:41:47;37.22;;;6.30;;
52848;SDS011;38714;53.180;5.812;2023-02-04T04:44:13;15.88;;;7.00;;
52848;SDS011;38714;53.180;5.812;2023-02-04T04:46:38;29.02;;;8.73;;
52848;SDS011;38714;53.180;5.812;2023-02-04T04:49:04;11.02;;;5.03;;
52848;SDS011;38714;53.180;5.812;2023-02-04T04:51:31;26.10;;;6.30;;
52848;SDS011;38714;53.180;5.812;2023-02-04T04:53:57;22.65;;;6.43;;
52848;SDS011;38714;53.180;5.812;2023-02-04T04:56:23;15.88;;;6.40;;
52848;SDS011;38714;53.180;5.812;2023-02-04T04:58:48;16.23;;;6.68;;
52848;SDS011;38714;53.180;5.812;2023-02-04T05:01:14;19.73;;;7.15;;
52848;SDS011;38714;53.180;5.812;2023-02-04T05:03:40;14.02;;;6.75;;
52848;SDS011;38714;53.180;5.812;2023-02-04T05:06:05;11.98;;;6.05;;
52848;SDS011;38714;53.180;5.812;2023-02-04T05:08:35;14.93;;;7.47;;
52848;SDS011;38714;53.180;5.812;2023-02-04T05:11:04;31.63;;;6.77;;
52848;SDS011;38714;53.180;5.812;2023-02-04T05:13:29;27.88;;;7.68;;
52848;SDS011;38714;53.180;5.812;2023-02-04T05:15:55;17.80;;;7.10;;
52848;SDS011;38714;53.180;5.812;2023-02-04T05:18:20;16.30;;;6.60;;
52848;SDS011;38714;53.180;5.812;2023-02-04T05:20:46;15.35;;;7.03;;
52848;SDS011;38714;53.180;5.812;2023-02-04T05:23:12;32.97;;;11.55;;
52848;SDS011;38714;53.180;5.812;2023-02-04T05:25:37;16.50;;;6.97;;
52848;SDS011;38714;53.180;5.812;2023-02-04T05:28:03;24.05;;;7.55;;
52848;SDS011;38714;53.180;5.812;2023-02-04T05:30:29;16.73;;;6.68;;
52848;SDS011;38714;53.180;5.812;2023-02-04T05:32:54;26.70;;;7.10;;
52848;SDS011;38714;53.180;5.812;2023-02-04T05:35:20;16.52;;;6.85;;
52848;SDS011;38714;53.180;5.812;2023-02-04T05:37:46;16.95;;;6.20;;
52848;SDS011;38714;53.180;5.812;2023-02-04T05:40:11;23.88;;;6.40;;
52848;SDS011;38714;53.180;5.812;2023-02-04T05:42:37;32.90;;;8.07;;
52848;SDS011;38714;53.180;5.812;2023-02-04T05:45:03;28.83;;;6.95;;
52848;SDS011;38714;53.180;5.812;2023-02-04T05:47:29;17.52;;;6.05;;
52848;SDS011;38714;53.180;5.812;2023-02-04T05:49:54;23.90;;;7.03;;
52848;SDS011;38714;53.180;5.812;2023-02-04T05:52:20;17.98;;;8.15;;
52848;SDS011;38714;53.180;5.812;2023-02-04T05:54:46;26.70;;;10.02;;
52848;SDS011;38714;53.180;5.812;2023-02-04T05:57:12;22.23;;;6.25;;
52848;SDS011;38714;53.180;5.812;2023-02-04T05:59:38;19.98;;;7.03;;
52848;SDS011;38714;53.180;5.812;2023-02-04T06:02:04;48.28;;;6.07;;
52848;SDS011;38714;53.180;5.812;2023-02-04T06:04:29;27.20;;;6.80;;
52848;SDS011;38714;53.180;5.812;2023-02-04T06:06:55;21.80;;;7.30;;
52848;SDS011;38714;53.180;5.812;2023-02-04T06:09:20;14.07;;;6.55;;
52848;SDS011;38714;53.180;5.812;2023-02-04T06:11:46;31.60;;;7.97;;
52848;SDS011;38714;53.180;5.812;2023-02-04T06:14:11;14.73;;;4.65;;
52848;SDS011;38714;53.180;5.812;2023-02-04T06:16:37;20.30;;;7.90;;
52848;SDS011;38714;53.180;5.812;2023-02-04T06:19:02;23.75;;;7.50;;
52848;SDS011;38714;53.180;5.812;2023-02-04T06:21:28;30.92;;;9.07;;
52848;SDS011;38714;53.180;5.812;2023-02-04T06:23:54;31.50;;;8.75;;
52848;SDS011;38714;53.180;5.812;2023-02-04T06:26:19;24.73;;;9.10;;
52848;SDS011;38714;53.180;5.812;2023-02-04T06:28:45;19.15;;;8.93;;
52848;SDS011;38714;53.180;5.812;2023-02-04T06:31:10;13.32;;;7.15;;
52848;SDS011;38714;53.180;5.812;2023-02-04T06:33:36;29.75;;;7.70;;
52848;SDS011;38714;53.180;5.812;2023-02-04T06:36:02;30.38;;;7.90;;
52848;SDS011;38714;53.180;5.812;2023-02-04T06:38:28;23.25;;;7.10;;
52848;SDS011;38714;53.180;5.812;2023-02-04T06:40:54;22.17;;;5.82;;
52848;SDS011;38714;53.180;5.812;2023-02-04T06:43:20;18.83;;;7.95;;
52848;SDS011;38714;53.180;5.812;2023-02-04T06:45:47;18.75;;;7.18;;
52848;SDS011;38714;53.180;5.812;2023-02-04T06:48:14;16.02;;;5.95;;
52848;SDS011;38714;53.180;5.812;2023-02-04T06:50:40;14.32;;;4.32;;
52848;SDS011;38714;53.180;5.812;2023-02-04T06:53:06;20.63;;;7.00;;
52848;SDS011;38714;53.180;5.812;2023-02-04T06:55:31;23.52;;;5.82;;
52848;SDS011;38714;53.180;5.812;2023-02-04T06:57:57;5.50;;;3.35;;
52848;SDS011;38714;53.180;5.812;2023-02-04T07:00:23;19.42;;;6.53;;
52848;SDS011;38714;53.180;5.812;2023-02-04T07:02:48;16.85;;;6.80;;
52848;SDS011;38714;53.180;5.812;2023-02-04T07:05:14;10.27;;;4.65;;
52848;SDS011;38714;53.180;5.812;2023-02-04T07:07:39;10.43;;;3.88;;
52848;SDS011;38714;53.180;5.812;2023-02-04T07:10:05;13.40;;;5.13;;
52848;SDS011;38714;53.180;5.812;2023-02-04T07:12:31;30.08;;;5.07;;
52848;SDS011;38714;53.180;5.812;2023-02-04T07:14:56;10.90;;;4.22;;
52848;SDS011;38714;53.180;5.812;2023-02-04T07:17:22;20.10;;;6.50;;
52848;SDS011;38714;53.180;5.812;2023-02-04T07:19:47;11.80;;;4.50;;
52848;SDS011;38714;53.180;5.812;2023-02-04T07:22:13;15.43;;;4.53;;
52848;SDS011;38714;53.180;5.812;2023-02-04T07:24:39;11.63;;;4.07;;
52848;SDS011;38714;53.180;5.812;2023-02-04T07:27:05;10.80;;;4.53;;
52848;SDS011;38714;53.180;5.812;2023-02-04T07:29:30;9.75;;;4.28;;
52848;SDS011;38714;53.180;5.812;2023-02-04T07:31:56;10.13;;;3.38;;
52848;SDS011;38714;53.180;5.812;2023-02-04T07:34:22;12.60;;;4.22;;
52848;SDS011;38714;53.180;5.812;2023-02-04T07:36:47;12.70;;;3.72;;
52848;SDS011;38714;53.180;5.812;2023-02-04T07:39:13;10.63;;;5.78;;
52848;SDS011;38714;53.180;5.812;2023-02-04T07:41:39;20.13;;;4.63;;
52848;SDS011;38714;53.180;5.812;2023-02-04T07:44:05;8.55;;;4.40;;
52848;SDS011;38714;53.180;5.812;2023-02-04T07:46:30;10.98;;;5.25;;
52848;SDS011;38714;53.180;5.812;2023-02-04T07:48:56;14.85;;;5.97;;
52848;SDS011;38714;53.180;5.812;2023-02-04T07:51:22;21.38;;;4.70;;
52848;SDS011;38714;53.180;5.812;2023-02-04T07:53:47;10.18;;;4.07;;
52848;SDS011;38714;53.180;5.812;2023-02-04T07:56:13;13.30;;;4.70;;
52848;SDS011;38714;53.180;5.812;2023-02-04T07:58:38;13.85;;;4.68;;
52848;SDS011;38714;53.180;5.812;2023-02-04T08:01:04;15.48;;;4.65;;
52848;SDS011;38714;53.180;5.812;2023-02-04T08:03:30;11.95;;;4.97;;
52848;SDS011;38714;53.180;5.812;2023-02-04T08:05:55;12.70;;;4.72;;
52848;SDS011;38714;53.180;5.812;2023-02-04T08:08:21;17.73;;;5.05;;
52848;SDS011;38714;53.180;5.812;2023-02-04T08:10:46;11.93;;;3.55;;
52848;SDS011;38714;53.180;5.812;2023-02-04T08:13:12;8.52;;;3.80;;
52848;SDS011;38714;53.180;5.812;2023-02-04T08:15:38;9.88;;;3.35;;
52848;SDS011;38714;53.180;5.812;2023-02-04T08:18:04;14.68;;;5.07;;
52848;SDS011;38714;53.180;5.812;2023-02-04T08:20:29;7.70;;;4.32;;
52848;SDS011;38714;53.180;5.812;2023-02-04T08:22:55;18.33;;;4.40;;
52848;SDS011;38714;53.180;5.812;2023-02-04T08:25:22;22.70;;;5.57;;
52848;SDS011;38714;53.180;5.812;2023-02-04T08:27:47;7.50;;;4.88;;
52848;SDS011;38714;53.180;5.812;2023-02-04T08:30:13;6.28;;;3.55;;
52848;SDS011;38714;53.180;5.812;2023-02-04T08:32:39;7.70;;;3.67;;
52848;SDS011;38714;53.180;5.812;2023-02-04T08:35:05;14.85;;;4.95;;
52848;SDS011;38714;53.180;5.812;2023-02-04T08:37:32;10.20;;;4.35;;
52848;SDS011;38714;53.180;5.812;2023-02-04T08:39:58;13.68;;;4.43;;
52848;SDS011;38714;53.180;5.812;2023-02-04T08:42:23;13.02;;;5.80;;
52848;SDS011;38714;53.180;5.812;2023-02-04T08:44:49;5.85;;;3.67;;
52848;SDS011;38714;53.180;5.812;2023-02-04T08:47:14;12.70;;;4.40;;
52848;SDS011;38714;53.180;5.812;2023-02-04T08:49:40;9.07;;;3.70;;
52848;SDS011;38714;53.180;5.812;2023-02-04T08:52:05;21.88;;;5.07;;
52848;SDS011;38714;53.180;5.812;2023-02-04T08:54:32;7.65;;;3.72;;
52848;SDS011;38714;53.180;5.812;2023-02-04T08:56:59;28.60;;;5.72;;
52848;SDS011;38714;53.180;5.812;2023-02-04T08:59:25;6.43;;;3.58;;
52848;SDS011;38714;53.180;5.812;2023-02-04T09:01:52;7.38;;;4.10;;
52848;SDS011;38714;53.180;5.812;2023-02-04T09:04:18;11.57;;;3.25;;
52848;SDS011;38714;53.180;5.812;2023-02-04T09:06:45;10.27;;;3.85;;
52848;SDS011;38714;53.180;5.812;2023-02-04T09:09:11;11.23;;;3.35;;
52848;SDS011;38714;53.180;5.812;2023-02-04T09:11:37;18.42;;;3.97;;
52848;SDS011;38714;53.180;5.812;2023-02-04T09:14:02;13.70;;;3.60;;
52848;SDS011;38714;53.180;5.812;2023-02-04T09:16:28;9.50;;;3.22;;
52848;SDS011;38714;53.180;5.812;2023-02-04T09:18:54;34.72;;;4.00;;
52848;SDS011;38714;53.180;5.812;2023-02-04T09:21:20;4.80;;;2.55;;
52848;SDS011;38714;53.180;5.812;2023-02-04T09:23:46;10.68;;;4.63;;
52848;SDS011;38714;53.180;5.812;2023-02-04T09:26:12;6.13;;;3.67;;
52848;SDS011;38714;53.180;5.812;2023-02-04T09:28:38;13.52;;;4.18;;
52848;SDS011;38714;53.180;5.812;2023-02-04T09:31:03;9.90;;;3.33;;
52848;SDS011;38714;53.180;5.812;2023-02-04T09:33:33;8.48;;;4.03;;
52848;SDS011;38714;53.180;5.812;2023-02-04T09:35:59;6.97;;;3.85;;
52848;SDS011;38714;53.180;5.812;2023-02-04T09:38:25;12.63;;;5.15;;
52848;SDS011;38714;53.180;5.812;2023-02-04T09:40:52;7.18;;;4.60;;
52848;SDS011;38714;53.180;5.812;2023-02-04T09:43:21;11.02;;;5.05;;
52848;SDS011;38714;53.180;5.812;2023-02-04T09:45:52;6.20;;;3.65;;
52848;SDS011;38714;53.180;5.812;2023-02-04T09:48:18;16.35;;;4.07;;
52848;SDS011;38714;53.180;5.812;2023-02-04T09:50:46;8.43;;;4.68;;
52848;SDS011;38714;53.180;5.812;2023-02-04T09:53:14;13.60;;;4.80;;
52848;SDS011;38714;53.180;5.812;2023-02-04T09:55:43;18.17;;;4.40;;
52848;SDS011;38714;53.180;5.812;2023-02-04T09:58:12;10.20;;;3.55;;
52848;SDS011;38714;53.180;5.812;2023-02-04T10:00:41;6.22;;;4.68;;
52848;SDS011;38714;53.180;5.812;2023-02-04T10:03:10;17.42;;;6.00;;
52848;SDS011;38714;53.180;5.812;2023-02-04T10:05:41;12.43;;;5.28;;
52848;SDS011;38714;53.180;5.812;2023-02-04T10:08:09;8.15;;;4.25;;
52848;SDS011;38714;53.180;5.812;2023-02-04T10:10:38;16.63;;;6.15;;
52848;SDS011;38714;53.180;5.812;2023-02-04T10:13:04;12.02;;;5.53;;
52848;SDS011;38714;53.180;5.812;2023-02-04T10:15:32;12.80;;;4.68;;
52848;SDS011;38714;53.180;5.812;2023-02-04T10:18:00;18.58;;;4.45;;
52848;SDS011;38714;53.180;5.812;2023-02-04T10:20:31;10.98;;;3.25;;
52848;SDS011;38714;53.180;5.812;2023-02-04T10:22:57;16.58;;;4.55;;
52848;SDS011;38714;53.180;5.812;2023-02-04T10:25:23;8.00;;;4.35;;
52848;SDS011;38714;53.180;5.812;2023-02-04T10:27:56;8.98;;;2.33;;
52848;SDS011;38714;53.180;5.812;2023-02-04T10:30:25;15.43;;;3.60;;
52848;SDS011;38714;53.180;5.812;2023-02-04T10:32:53;7.80;;;3.47;;
52848;SDS011;38714;53.180;5.812;2023-02-04T10:35:20;22.90;;;3.40;;
52848;SDS011;38714;53.180;5.812;2023-02-04T10:37:47;7.47;;;3.30;;
52848;SDS011;38714;53.180;5.812;2023-02-04T10:40:27;6.25;;;2.78;;
52848;SDS011;38714;53.180;5.812;2023-02-04T10:42:54;6.45;;;2.80;;
52848;SDS011;38714;53.180;5.812;2023-02-04T10:45:23;8.85;;;2.75;;
52848;SDS011;38714;53.180;5.812;2023-02-04T10:47:54;12.45;;;4.90;;
52848;SDS011;38714;53.180;5.812;2023-02-04T10:50:21;7.18;;;2.53;;
52848;SDS011;38714;53.180;5.812;2023-02-04T10:53:07;3.25;;;2.55;;
52848;SDS011;38714;53.180;5.812;2023-02-04T10:55:53;11.60;;;4.00;;
52848;SDS011;38714;53.180;5.812;2023-02-04T10:58:24;13.52;;;4.10;;
52848;SDS011;38714;53.180;5.812;2023-02-04T11:00:51;8.65;;;2.67;;
52848;SDS011;38714;53.180;5.812;2023-02-04T11:03:27;8.13;;;3.10;;
52848;SDS011;38714;53.180;5.812;2023-02-04T11:05:57;14.05;;;2.85;;
52848;SDS011;38714;53.180;5.812;2023-02-04T11:10:57;10.02;;;3.80;;
52848;SDS011;38714;53.180;5.812;2023-02-04T11:13:25;5.72;;;2.55;;
52848;SDS011;38714;53.180;5.812;2023-02-04T11:16:23;9.80;;;3.08;;
52848;SDS011;38714;53.180;5.812;2023-02-04T11:18:53;6.18;;;1.88;;
52848;SDS011;38714;53.180;5.812;2023-02-04T11:26:36;4.78;;;2.63;;
52848;SDS011;38714;53.180;5.812;2023-02-04T11:34:02;6.90;;;2.35;;
52848;SDS011;38714;53.180;5.812;2023-02-04T11:36:53;10.68;;;3.10;;
52848;SDS011;38714;53.180;5.812;2023-02-04T11:39:37;4.63;;;2.47;;
52848;SDS011;38714;53.180;5.812;2023-02-04T11:42:04;13.52;;;3.00;;
52848;SDS011;38714;53.180;5.812;2023-02-04T11:44:34;22.95;;;3.33;;
52848;SDS011;38714;53.180;5.812;2023-02-04T11:47:00;7.65;;;2.42;;
52848;SDS011;38714;53.180;5.812;2023-02-04T11:49:30;3.88;;;2.17;;
52848;SDS011;38714;53.180;5.812;2023-02-04T11:52:10;6.18;;;3.40;;
52848;SDS011;38714;53.180;5.812;2023-02-04T11:54:38;6.03;;;3.65;;
52848;SDS011;38714;53.180;5.812;2023-02-04T11:57:03;11.90;;;4.30;;
52848;SDS011;38714;53.180;5.812;2023-02-04T11:59:29;5.78;;;2.58;;
52848;SDS011;38714;53.180;5.812;2023-02-04T12:02:05;10.85;;;2.70;;
52848;SDS011;38714;53.180;5.812;2023-02-04T12:04:49;5.10;;;2.60;;
52848;SDS011;38714;53.180;5.812;2023-02-04T12:07:17;7.28;;;2.90;;
52848;SDS011;38714;53.180;5.812;2023-02-04T12:09:49;5.80;;;2.08;;
52848;SDS011;38714;53.180;5.812;2023-02-04T12:12:22;6.70;;;2.92;;
52848;SDS011;38714;53.180;5.812;2023-02-04T12:15:00;8.68;;;3.58;;
52848;SDS011;38714;53.180;5.812;2023-02-04T12:17:28;7.10;;;2.38;;
52848;SDS011;38714;53.180;5.812;2023-02-04T12:19:54;9.45;;;2.85;;
52848;SDS011;38714;53.180;5.812;2023-02-04T12:22:19;11.65;;;3.20;;
52848;SDS011;38714;53.180;5.812;2023-02-04T12:24:45;8.88;;;4.07;;
52848;SDS011;38714;53.180;5.812;2023-02-04T12:27:10;3.63;;;2.55;;
52848;SDS011;38714;53.180;5.812;2023-02-04T12:29:36;11.05;;;3.88;;
52848;SDS011;38714;53.180;5.812;2023-02-04T12:32:02;6.68;;;3.92;;
52848;SDS011;38714;53.180;5.812;2023-02-04T12:34:27;9.30;;;2.30;;
52848;SDS011;38714;53.180;5.812;2023-02-04T12:36:53;7.50;;;2.65;;
52848;SDS011;38714;53.180;5.812;2023-02-04T12:39:19;6.38;;;2.35;;
52848;SDS011;38714;53.180;5.812;2023-02-04T12:41:44;10.40;;;2.92;;
52848;SDS011;38714;53.180;5.812;2023-02-04T12:44:10;3.30;;;2.63;;
52848;SDS011;38714;53.180;5.812;2023-02-04T12:46:35;3.63;;;2.15;;
52848;SDS011;38714;53.180;5.812;2023-02-04T12:49:01;12.40;;;3.30;;
52848;SDS011;38714;53.180;5.812;2023-02-04T12:51:27;4.22;;;3.17;;
52848;SDS011;38714;53.180;5.812;2023-02-04T12:53:52;6.88;;;2.30;;
52848;SDS011;38714;53.180;5.812;2023-02-04T12:56:18;15.27;;;3.08;;
52848;SDS011;38714;53.180;5.812;2023-02-04T12:58:44;2.08;;;1.80;;
52848;SDS011;38714;53.180;5.812;2023-02-04T13:01:10;11.73;;;2.03;;
52848;SDS011;38714;53.180;5.812;2023-02-04T13:03:36;7.90;;;3.55;;
52848;SDS011;38714;53.180;5.812;2023-02-04T13:06:01;7.97;;;3.58;;
52848;SDS011;38714;53.180;5.812;2023-02-04T13:08:27;6.18;;;2.35;;
52848;SDS011;38714;53.180;5.812;2023-02-04T13:10:53;6.03;;;2.67;;
52848;SDS011;38714;53.180;5.812;2023-02-04T13:13:19;8.80;;;2.92;;
52848;SDS011;38714;53.180;5.812;2023-02-04T13:15:46;3.42;;;1.98;;
52848;SDS011;38714;53.180;5.812;2023-02-04T13:18:12;5.47;;;2.00;;
52848;SDS011;38714;53.180;5.812;2023-02-04T13:20:38;7.82;;;3.05;;
52848;SDS011;38714;53.180;5.812;2023-02-04T13:23:04;20.67;;;3.38;;
52848;SDS011;38714;53.180;5.812;2023-02-04T13:25:29;10.60;;;3.70;;
52848;SDS011;38714;53.180;5.812;2023-02-04T13:27:55;8.30;;;3.20;;
52848;SDS011;38714;53.180;5.812;2023-02-04T13:30:20;15.18;;;3.15;;
52848;SDS011;38714;53.180;5.812;2023-02-04T13:32:46;5.65;;;2.60;;
52848;SDS011;38714;53.180;5.812;2023-02-04T13:35:12;7.63;;;2.63;;
52848;SDS011;38714;53.180;5.812;2023-02-04T13:37:37;4.63;;;2.47;;
52848;SDS011;38714;53.180;5.812;2023-02-04T13:40:03;6.72;;;2.25;;
52848;SDS011;38714;53.180;5.812;2023-02-04T13:42:30;6.03;;;3.38;;
52848;SDS011;38714;53.180;5.812;2023-02-04T13:44:55;9.15;;;2.35;;
52848;SDS011;38714;53.180;5.812;2023-02-04T13:47:21;5.80;;;2.08;;
52848;SDS011;38714;53.180;5.812;2023-02-04T13:49:46;12.18;;;4.30;;
52848;SDS011;38714;53.180;5.812;2023-02-04T13:52:12;11.43;;;2.78;;
52848;SDS011;38714;53.180;5.812;2023-02-04T13:54:38;7.50;;;3.17;;
52848;SDS011;38714;53.180;5.812;2023-02-04T13:57:04;6.75;;;2.67;;
52848;SDS011;38714;53.180;5.812;2023-02-04T13:59:30;16.05;;;4.90;;
52848;SDS011;38714;53.180;5.812;2023-02-04T14:01:56;11.60;;;3.95;;
52848;SDS011;38714;53.180;5.812;2023-02-04T14:04:22;5.47;;;2.60;;
52848;SDS011;38714;53.180;5.812;2023-02-04T14:06:48;7.55;;;3.75;;
52848;SDS011;38714;53.180;5.812;2023-02-04T14:09:13;12.15;;;6.28;;
52848;SDS011;38714;53.180;5.812;2023-02-04T14:11:39;7.32;;;3.83;;
52848;SDS011;38714;53.180;5.812;2023-02-04T14:14:05;13.52;;;3.53;;
52848;SDS011;38714;53.180;5.812;2023-02-04T14:16:30;5.70;;;3.33;;
52848;SDS011;38714;53.180;5.812;2023-02-04T14:18:56;11.57;;;3.13;;
52848;SDS011;38714;53.180;5.812;2023-02-04T14:21:22;6.13;;;3.25;;
52848;SDS011;38714;53.180;5.812;2023-02-04T14:23:47;7.60;;;3.08;;
52848;SDS011;38714;53.180;5.812;2023-02-04T14:26:13;6.18;;;2.65;;
52848;SDS011;38714;53.180;5.812;2023-02-04T14:28:39;6.43;;;2.47;;
52848;SDS011;38714;53.180;5.812;2023-02-04T14:31:04;15.65;;;4.07;;
52848;SDS011;38714;53.180;5.812;2023-02-04T14:33:30;17.83;;;3.38;;
52848;SDS011;38714;53.180;5.812;2023-02-04T14:35:55;9.88;;;3.22;;
52848;SDS011;38714;53.180;5.812;2023-02-04T14:38:21;16.65;;;3.00;;
52848;SDS011;38714;53.180;5.812;2023-02-04T14:40:47;10.02;;;3.10;;
52848;SDS011;38714;53.180;5.812;2023-02-04T14:43:12;9.30;;;3.15;;
52848;SDS011;38714;53.180;5.812;2023-02-04T14:45:38;17.27;;;4.60;;
52848;SDS011;38714;53.180;5.812;2023-02-04T14:48:05;8.43;;;3.25;;